DeKalb, Illinois
Current Conditions -  °F | °C
As of 9:15 AM on Thursday 18 Dec 2014 (Local Time) from KDKB Reporting Station
Clear Clear  
Wind Chill: 20°   Ceiling: Unl
Heat Index: 20°   Visibility: 10mi
Dew Point: 15°   Wind: 3mph
Humidity: 80%   Direction: 310°NW
Pressure: 30.31"   Gusts: NA
Location:  41.93°N, 88.75°W
Report Text: KDKB 181515Z AUTO 31003KT 10SM CLR M06/M09 A3031 RMK AO2 T10641094
Loading
Personal Weather Stations






























Interactive Weather Map New forecast layout! Learn more

10-Day Weather Forecast

Advertisements
Track Severe Weather on mobile